Time;durP1;ratioP1;P1;durP2;ratioP2;P2;SDS_P1;SDS_P2;PMS_P1;PMS_P2;Temp;Humidity;BMP_temperature;BMP_pressure;BME280_temperature;BME280_humidity;BME280_pressure;Samples;Min_cycle;Max_cycle;Signal;HPM_P1;HPM_P2
2022/03/15 00:01:33;;;;;;;21.82;15.40;;;;;;;5.38;47.10;103535.28;1717517;81;21061;-73
2022/03/15 00:04:00;;;;;;;20.75;15.40;;;;;;;5.37;47.09;103533.53;1728870;81;21518;-74
2022/03/15 00:06:27;;;;;;;23.50;15.98;;;;;;;5.36;47.00;103532.16;1724288;81;21065;-73
2022/03/15 00:08:54;;;;;;;21.80;15.95;;;;;;;5.35;47.02;103530.00;1713587;81;21530;-73
2022/03/15 00:11:21;;;;;;;22.37;15.00;;;;;;;5.35;47.02;103521.37;1733697;81;21089;-73
2022/03/15 00:13:48;;;;;;;24.30;16.73;;;;;;;5.34;47.14;103522.16;1720069;81;21029;-73
2022/03/15 00:16:14;;;;;;;27.60;16.48;;;;;;;5.29;47.08;103521.99;1733660;81;21042;-74
2022/03/15 00:18:42;;;;;;;24.85;16.50;;;;;;;5.27;47.10;103527.50;1760630;79;21038;-73
2022/03/15 00:21:11;;;;;;;24.65;16.62;;;;;;;5.25;47.01;103524.37;1791758;79;21079;-74
2022/03/15 00:23:38;;;;;;;24.98;16.55;;;;;;;5.23;47.00;103527.29;1788778;79;21085;-73
2022/03/15 00:26:07;;;;;;;34.13;16.57;;;;;;;5.16;47.04;103535.56;1718388;82;21076;-73
2022/03/15 00:28:35;;;;;;;24.43;16.73;;;;;;;5.11;47.07;103538.37;1735107;82;21081;-74
2022/03/15 00:31:04;;;;;;;24.07;16.82;;;;;;;5.07;47.12;103533.45;1720683;82;21359;-74
2022/03/15 00:33:31;;;;;;;25.40;17.10;;;;;;;5.06;47.12;103545.01;1723734;82;21043;-73
2022/03/15 00:35:59;;;;;;;30.05;17.35;;;;;;;5.05;47.17;103540.67;1729311;82;21542;-75
2022/03/15 00:38:29;;;;;;;24.55;16.50;;;;;;;5.07;47.17;103536.47;1703082;82;21045;-73
2022/03/15 00:40:58;;;;;;;26.07;17.37;;;;;;;5.10;47.20;103535.30;1712598;82;21039;-73
2022/03/15 00:43:26;;;;;;;22.30;16.48;;;;;;;5.13;47.08;103537.59;1723982;81;21076;-74
2022/03/15 00:45:55;;;;;;;25.32;17.67;;;;;;;5.17;46.99;103524.44;1725901;81;21051;-73
2022/03/15 00:48:22;;;;;;;24.70;16.93;;;;;;;5.18;46.92;103524.50;1710980;82;21027;-73
2022/03/15 00:50:50;;;;;;;24.80;16.70;;;;;;;5.21;46.81;103522.47;1725730;82;21078;-74
2022/03/15 00:53:18;;;;;;;25.57;17.55;;;;;;;5.21;46.86;103522.47;1706907;82;21057;-73
2022/03/15 00:55:44;;;;;;;24.10;16.60;;;;;;;5.22;46.90;103514.78;1720781;82;21106;-74
2022/03/15 00:58:12;;;;;;;24.43;16.52;;;;;;;5.22;47.01;103513.89;1719232;82;21563;-74
2022/03/15 01:00:39;;;;;;;24.12;16.93;;;;;;;5.22;47.10;103511.31;1729405;82;21688;-74
2022/03/15 01:03:09;;;;;;;25.90;17.55;;;;;;;5.21;47.19;103510.45;1795216;79;21037;-75
2022/03/15 01:05:36;;;;;;;22.67;17.10;;;;;;;5.22;47.16;103503.56;1777520;79;21518;-74
2022/03/15 01:08:04;;;;;;;22.22;16.85;;;;;;;5.22;47.14;103506.15;1782734;78;21002;-73
2022/03/15 01:10:31;;;;;;;25.25;17.35;;;;;;;5.20;47.18;103506.09;1777327;79;21542;-73
2022/03/15 01:12:59;;;;;;;28.17;17.45;;;;;;;5.21;47.20;103506.98;1755254;81;21029;-73
2022/03/15 01:15:29;;;;;;;24.72;17.62;;;;;;;5.20;47.18;103505.20;1762128;80;21041;-73
2022/03/15 01:17:55;;;;;;;23.25;17.07;;;;;;;5.19;47.07;103508.61;1778172;79;21038;-73
2022/03/15 01:20:24;;;;;;;24.12;17.25;;;;;;;5.18;47.06;103505.54;1780676;79;21527;-73
2022/03/15 01:22:51;;;;;;;23.52;16.52;;;;;;;5.16;47.13;103504.59;1782765;79;21057;-73
2022/03/15 01:25:17;;;;;;;23.10;17.35;;;;;;;5.16;47.19;103503.30;1782455;79;21031;-73
2022/03/15 01:27:44;;;;;;;24.07;17.15;;;;;;;5.14;47.12;103494.61;1772967;79;21073;-74
2022/03/15 01:30:11;;;;;;;24.25;15.93;;;;;;;5.14;47.03;103497.19;1787748;79;21018;-73
2022/03/15 01:32:38;;;;;;;26.50;17.07;;;;;;;5.12;46.99;103496.23;1781648;77;20967;-74
2022/03/15 01:35:06;;;;;;;23.55;17.15;;;;;;;5.10;46.94;103491.42;1779910;79;20995;-73
2022/03/15 01:37:33;;;;;;;27.00;17.52;;;;;;;5.09;46.97;103496.12;1774383;79;20995;-73
2022/03/15 01:40:01;;;;;;;25.00;17.57;;;;;;;5.07;46.96;103497.75;1797371;78;20999;-73
2022/03/15 01:42:28;;;;;;;23.22;16.35;;;;;;;5.05;46.96;103489.06;1797217;77;21045;-73
2022/03/15 01:44:55;;;;;;;25.55;15.85;;;;;;;5.04;46.91;103493.73;1767848;78;21157;-73
2022/03/15 01:47:22;;;;;;;24.63;15.65;;;;;;;5.04;46.87;103489.86;1773016;79;21051;-73
2022/03/15 01:49:48;;;;;;;24.10;15.95;;;;;;;5.02;46.80;103487.63;1764086;80;21708;-73
2022/03/15 01:52:16;;;;;;;20.90;14.98;;;;;;;5.01;46.85;103489.74;1770570;79;21105;-75
2022/03/15 01:54:43;;;;;;;20.15;14.40;;;;;;;5.00;46.66;103487.96;1774877;80;21022;-73
2022/03/15 01:57:09;;;;;;;24.37;16.15;;;;;;;4.98;46.64;103481.86;1762694;80;21090;-74
2022/03/15 01:59:36;;;;;;;20.05;14.35;;;;;;;4.98;46.62;103484.44;1770184;79;21034;-73
2022/03/15 02:02:03;;;;;;;21.17;14.68;;;;;;;4.95;46.55;103482.19;1776733;79;21007;-73
2022/03/15 02:04:32;;;;;;;18.42;13.70;;;;;;;4.95;46.52;103477.03;1774545;79;20987;-73
2022/03/15 02:07:11;;;;;;;18.15;13.48;;;;;;;4.93;46.57;103474.80;1757006;80;21025;-73
2022/03/15 02:09:40;;;;;;;16.87;13.38;;;;;;;4.93;46.58;103483.82;1778593;78;21109;-73
2022/03/15 02:12:09;;;;;;;18.02;13.70;;;;;;;4.91;46.53;103476.42;1784156;79;21500;-73
2022/03/15 02:14:38;;;;;;;20.17;14.68;;;;;;;4.90;46.56;103477.22;1768004;79;21067;-72
2022/03/15 02:17:04;;;;;;;20.68;13.95;;;;;;;4.88;46.59;103478.85;1778856;79;21026;-73
2022/03/15 02:19:33;;;;;;;17.75;13.32;;;;;;;4.89;46.68;103490.95;1784575;79;21041;-73
2022/03/15 02:22:01;;;;;;;18.73;13.48;;;;;;;4.87;46.71;103490.00;1772299;79;21074;-74
2022/03/15 02:24:28;;;;;;;16.77;13.68;;;;;;;4.85;46.80;103485.19;1775174;79;21029;-73
2022/03/15 02:26:54;;;;;;;19.85;13.38;;;;;;;4.85;46.79;103481.31;1776011;79;20975;-73
2022/03/15 02:29:21;;;;;;;17.80;13.05;;;;;;;4.84;46.85;103479.97;1786999;79;21498;-72
2022/03/15 02:31:49;;;;;;;16.32;12.75;;;;;;;4.82;46.88;103479.88;1791166;79;21070;-72
2022/03/15 02:34:19;;;;;;;18.67;13.18;;;;;;;4.81;46.68;103472.96;1789089;78;21505;-73
2022/03/15 02:36:45;;;;;;;19.15;13.98;;;;;;;4.75;46.44;103479.14;1770500;79;20974;-72
2022/03/15 02:39:13;;;;;;;19.17;13.40;;;;;;;4.70;46.53;103474.16;1788866;79;20998;-73
2022/03/15 02:41:41;;;;;;;17.80;12.93;;;;;;;4.69;46.71;103471.13;1786148;79;21045;-73
2022/03/15 02:44:09;;;;;;;18.70;13.08;;;;;;;4.69;46.81;103476.28;1786932;78;21002;-73
2022/03/15 02:46:39;;;;;;;16.37;13.00;;;;;;;4.69;46.91;103480.16;1788447;78;21035;-72
2022/03/15 02:49:08;;;;;;;14.25;12.07;;;;;;;4.70;47.05;103479.33;1770507;80;21114;-73
2022/03/15 02:51:36;;;;;;;16.93;12.35;;;;;;;4.68;47.20;103478.38;1755211;78;20995;-73
2022/03/15 02:54:08;;;;;;;18.73;12.80;;;;;;;4.66;47.37;103477.82;1770109;79;21066;-72
2022/03/15 02:56:39;;;;;;;17.52;13.13;;;;;;;4.59;47.61;103474.11;1768007;80;21021;-74
2022/03/15 02:59:01;;;;;;;15.43;11.73;;;;;;;4.57;47.89;103473.55;1741534;80;21046;-73
2022/03/15 03:01:27;;;;;;;19.20;13.10;;;;;;;4.54;48.05;103473.00;1776098;79;21544;-73
2022/03/15 03:03:54;;;;;;;15.93;12.60;;;;;;;4.54;48.18;103469.53;1783286;79;21014;-73
2022/03/15 03:06:21;;;;;;;15.65;12.93;;;;;;;4.52;48.21;103472.05;1775323;79;20994;-73
2022/03/15 03:08:47;;;;;;;16.67;12.47;;;;;;;4.51;48.32;103475.45;1777511;79;21022;-72
2022/03/15 03:11:14;;;;;;;13.32;10.98;;;;;;;4.50;48.35;103470.20;1775675;80;21058;-74
2022/03/15 03:13:44;;;;;;;16.07;13.05;;;;;;;4.50;48.43;103471.09;1775367;79;21054;-74
2022/03/15 03:16:13;;;;;;;15.43;12.00;;;;;;;4.49;48.41;103469.74;1713907;82;21063;-73
2022/03/15 03:18:40;;;;;;;15.83;11.63;;;;;;;4.47;48.37;103467.06;1711699;82;21030;-73
2022/03/15 03:21:08;;;;;;;15.25;11.43;;;;;;;4.46;48.20;103470.48;1764615;79;21045;-73
2022/03/15 03:23:36;;;;;;;14.18;10.78;;;;;;;4.43;47.98;103463.87;1770097;80;21027;-73
2022/03/15 03:26:03;;;;;;;15.53;11.12;;;;;;;4.39;47.84;103467.13;1770683;79;20991;-74
2022/03/15 03:28:38;;;;;;;13.55;11.55;;;;;;;4.35;47.85;103466.94;1713154;82;21598;-73
2022/03/15 03:31:08;;;;;;;15.13;11.85;;;;;;;4.31;47.85;103465.89;1715521;82;21077;-73
2022/03/15 03:33:37;;;;;;;15.45;11.57;;;;;;;4.28;47.92;103473.50;1715779;82;21050;-73
2022/03/15 03:36:05;;;;;;;14.73;11.18;;;;;;;4.26;48.01;103471.25;1701901;82;21115;-74
2022/03/15 03:38:31;;;;;;;16.52;12.15;;;;;;;4.25;48.11;103470.77;1719419;82;21004;-73
2022/03/15 03:40:58;;;;;;;15.08;11.97;;;;;;;4.23;48.26;103472.38;1704589;82;21529;-73
2022/03/15 03:43:25;;;;;;;15.35;11.78;;;;;;;4.23;48.33;103472.38;1775029;79;20984;-73
2022/03/15 03:45:51;;;;;;;14.05;11.25;;;;;;;4.24;48.26;103470.30;1782586;79;21000;-73
2022/03/15 03:48:19;;;;;;;13.38;11.08;;;;;;;4.23;47.91;103472.38;1780411;79;21070;-73
2022/03/15 03:50:46;;;;;;;14.03;11.10;;;;;;;4.19;47.66;103477.31;1777389;79;21463;-73
2022/03/15 03:53:12;;;;;;;13.28;10.90;;;;;;;4.11;47.74;103475.67;1765057;80;21010;-73
2022/03/15 03:55:40;;;;;;;18.17;12.43;;;;;;;4.07;47.80;103475.94;1766963;80;21075;-74
2022/03/15 03:58:07;;;;;;;16.15;11.53;;;;;;;4.07;47.86;103476.34;1763218;80;21094;-74
2022/03/15 04:00:35;;;;;;;17.70;12.43;;;;;;;4.06;48.07;103484.46;1762946;80;21011;-74
2022/03/15 04:03:01;;;;;;;13.65;11.53;;;;;;;4.09;48.19;103478.58;1769578;79;21550;-74
2022/03/15 04:05:35;;;;;;;13.60;11.43;;;;;;;4.13;48.36;103486.54;1783528;78;21022;-73
2022/03/15 04:07:59;;;;;;;16.02;11.63;;;;;;;4.16;48.47;103483.63;1768040;79;21047;-74
2022/03/15 04:10:30;;;;;;;17.82;13.10;;;;;;;4.16;48.36;103483.23;1765784;79;21498;-73
2022/03/15 04:12:56;;;;;;;17.45;12.73;;;;;;;4.21;48.34;103486.89;1766050;80;21015;-74
2022/03/15 04:15:24;;;;;;;17.45;12.88;;;;;;;4.27;48.26;103482.42;1777369;80;21102;-74
2022/03/15 04:17:52;;;;;;;18.92;12.82;;;;;;;4.28;48.16;103483.80;1774834;79;21037;-73
2022/03/15 04:20:19;;;;;;;18.15;12.58;;;;;;;4.30;48.16;103484.77;1788020;78;20983;-74
2022/03/15 04:22:47;;;;;;;19.27;13.15;;;;;;;4.32;48.15;103486.11;1776313;79;21058;-73
2022/03/15 04:25:14;;;;;;;18.35;13.28;;;;;;;4.37;48.17;103484.22;1775463;79;21056;-74
2022/03/15 04:27:41;;;;;;;19.27;13.28;;;;;;;4.38;48.11;103482.53;1770588;80;21568;-74
2022/03/15 04:30:08;;;;;;;18.12;13.05;;;;;;;4.38;48.17;103480.84;1771745;80;21022;-73
2022/03/15 04:32:37;;;;;;;17.67;13.58;;;;;;;4.40;48.11;103483.48;1764052;80;21533;-73
2022/03/15 04:35:05;;;;;;;15.15;13.13;;;;;;;4.38;47.87;103478.27;1769170;80;21488;-74
2022/03/15 04:37:35;;;;;;;18.82;13.20;;;;;;;4.43;47.79;103475.91;1780880;80;21038;-74
2022/03/15 04:40:02;;;;;;;16.32;12.80;;;;;;;4.48;47.63;103469.25;1771711;79;21529;-75
2022/03/15 04:42:28;;;;;;;18.87;13.62;;;;;;;4.53;47.41;103468.67;1765628;79;21017;-74
2022/03/15 04:44:55;;;;;;;17.57;14.00;;;;;;;4.58;47.25;103462.01;1777441;80;21022;-73
2022/03/15 04:47:24;;;;;;;21.05;15.13;;;;;;;4.62;47.09;103460.44;1773674;80;21094;-74
2022/03/15 04:49:50;;;;;;;21.68;15.18;;;;;;;4.66;46.94;103461.95;1778184;79;21023;-74
2022/03/15 04:52:17;;;;;;;19.48;14.53;;;;;;;4.68;46.79;103459.03;1785436;79;21077;-73
2022/03/15 04:54:45;;;;;;;18.90;14.45;;;;;;;4.69;46.70;103456.94;1787240;79;21035;-74
2022/03/15 04:57:12;;;;;;;19.10;14.23;;;;;;;4.71;46.74;103454.02;1757801;79;21053;-74
2022/03/15 04:59:38;;;;;;;17.25;14.03;;;;;;;4.72;46.72;103444.16;1721570;82;21005;-73
2022/03/15 05:02:04;;;;;;;18.02;12.78;;;;;;;4.75;46.62;103436.98;1715361;82;22836;-73
2022/03/15 05:04:34;;;;;;;16.27;12.88;;;;;;;4.77;46.40;103440.11;1729924;82;21505;-73
2022/03/15 05:07:01;;;;;;;17.05;13.38;;;;;;;4.77;46.37;103438.82;1790914;79;21542;-73
2022/03/15 05:09:28;;;;;;;19.32;14.05;;;;;;;4.79;46.30;103441.05;1791447;79;21018;-73
2022/03/15 05:11:55;;;;;;;17.65;13.30;;;;;;;4.82;46.34;103439.03;1785627;79;21010;-74
2022/03/15 05:14:22;;;;;;;18.87;12.78;;;;;;;4.83;46.38;103437.80;1786390;79;21498;-74
2022/03/15 05:16:49;;;;;;;17.05;12.55;;;;;;;4.84;46.42;103426.64;1792068;79;20998;-74
2022/03/15 05:19:17;;;;;;;15.45;11.90;;;;;;;4.86;46.41;103431.47;1797569;79;21027;-73
2022/03/15 05:21:45;;;;;;;15.95;12.53;;;;;;;4.85;46.17;103433.59;1773143;79;21067;-75
2022/03/15 05:24:12;;;;;;;16.50;12.88;;;;;;;4.80;46.25;103433.78;1785948;79;21101;-73
2022/03/15 05:26:38;;;;;;;15.18;11.55;;;;;;;4.79;46.53;103433.32;1780479;79;21616;-74
2022/03/15 05:29:05;;;;;;;14.25;12.03;;;;;;;4.78;46.70;103432.83;1789589;79;21054;-74
2022/03/15 05:31:32;;;;;;;18.07;13.45;;;;;;;4.75;46.93;103443.42;1770845;79;21018;-74
2022/03/15 05:33:59;;;;;;;16.45;12.63;;;;;;;4.69;47.00;103431.55;1775864;78;21061;-74
2022/03/15 05:36:26;;;;;;;16.05;13.00;;;;;;;4.69;47.06;103429.86;1771476;79;21065;-73
2022/03/15 05:38:54;;;;;;;14.43;12.25;;;;;;;4.69;47.20;103425.99;1790232;79;21022;-73
2022/03/15 05:41:21;;;;;;;15.98;12.85;;;;;;;4.78;47.24;103430.68;1792476;79;21046;-74
2022/03/15 05:43:47;;;;;;;17.25;12.35;;;;;;;4.84;47.26;103429.22;1787358;79;21027;-73
2022/03/15 05:46:16;;;;;;;16.00;12.80;;;;;;;4.90;47.23;103432.07;1793105;79;21011;-74
2022/03/15 05:48:43;;;;;;;16.55;12.43;;;;;;;4.94;47.33;103426.66;1790806;79;21059;-73
2022/03/15 05:51:09;;;;;;;18.75;13.25;;;;;;;5.00;47.52;103428.61;1779868;79;20999;-75
2022/03/15 05:53:37;;;;;;;18.50;13.45;;;;;;;5.05;47.65;103428.42;1785622;79;21089;-74
2022/03/15 05:56:04;;;;;;;19.50;14.90;;;;;;;5.08;47.77;103437.56;1780127;79;21096;-75
2022/03/15 05:58:33;;;;;;;20.10;15.13;;;;;;;5.15;47.93;103439.61;1766615;79;21606;-74
2022/03/15 06:00:59;;;;;;;22.77;17.17;;;;;;;5.19;48.20;103438.92;1769662;79;20959;-75
2022/03/15 06:03:26;;;;;;;24.25;17.67;;;;;;;5.18;48.58;103441.02;1763837;80;21052;-74
2022/03/15 06:05:53;;;;;;;23.52;18.42;;;;;;;5.14;48.97;103442.98;1761458;80;21043;-74
2022/03/15 06:08:20;;;;;;;22.65;17.37;;;;;;;5.13;49.48;103443.82;1767629;79;21019;-74
2022/03/15 06:10:47;;;;;;;22.95;16.60;;;;;;;5.21;49.92;103442.45;1785765;79;21047;-74
2022/03/15 06:13:13;;;;;;;24.05;17.10;;;;;;;5.28;50.22;103438.00;1769087;78;21040;-75
2022/03/15 06:15:40;;;;;;;24.20;18.25;;;;;;;5.37;50.34;103442.27;1763809;79;21547;-74
2022/03/15 06:18:07;;;;;;;18.10;16.05;;;;;;;5.47;50.35;103437.96;1785949;79;20995;-74
2022/03/15 06:20:34;;;;;;;25.55;17.90;;;;;;;5.56;50.38;103426.73;1742310;80;21181;-74
2022/03/15 06:23:03;;;;;;;23.87;17.75;;;;;;;5.69;50.28;103434.14;1721289;82;21055;-75
2022/03/15 06:25:30;;;;;;;24.32;17.75;;;;;;;5.90;50.17;103435.05;1705171;83;21574;-74
2022/03/15 06:27:58;;;;;;;23.67;18.23;;;;;;;6.07;49.79;103422.38;1727535;82;21079;-74
2022/03/15 06:30:25;;;;;;;21.33;17.32;;;;;;;6.24;49.69;103423.92;1716479;82;21100;-74
2022/03/15 06:32:53;;;;;;;24.25;17.27;;;;;;;6.51;49.37;103415.02;1717719;82;21043;-74
2022/03/15 06:35:20;;;;;;;22.93;18.82;;;;;;;6.72;49.17;103420.10;1778863;79;21066;-74
2022/03/15 06:37:49;;;;;;;22.48;17.17;;;;;;;7.01;48.85;103414.23;1767551;80;20998;-74
2022/03/15 06:40:25;;;;;;;19.12;16.77;;;;;;;7.36;48.11;103420.20;1764432;79;21632;-74
2022/03/15 06:42:53;;;;;;;23.32;16.30;;;;;;;7.52;47.60;103419.02;1753999;81;21070;-74
2022/03/15 06:45:20;;;;;;;34.90;18.30;;;;;;;7.55;47.48;103413.52;1768832;80;21029;-75
2022/03/15 06:47:47;;;;;;;22.45;17.25;;;;;;;7.64;47.50;103411.23;1769962;80;21012;-74
2022/03/15 06:50:14;;;;;;;20.25;16.97;;;;;;;7.85;47.31;103409.30;1773244;80;21058;-75
2022/03/15 06:52:43;;;;;;;20.75;16.23;;;;;;;8.12;46.78;103407.56;1769766;80;21046;-75
2022/03/15 06:55:10;;;;;;;20.92;16.02;;;;;;;8.32;46.04;103406.91;1759726;80;21671;-75
2022/03/15 06:57:37;;;;;;;20.27;16.42;;;;;;;8.47;45.63;103402.59;1777716;80;21031;-74
2022/03/15 07:00:06;;;;;;;20.15;16.55;;;;;;;8.66;45.49;103403.55;1752780;79;21030;-75
2022/03/15 07:02:33;;;;;;;23.00;17.10;;;;;;;8.93;45.13;103403.02;1764303;80;21006;-75
2022/03/15 07:04:59;;;;;;;21.27;16.15;;;;;;;9.13;44.44;103400.52;1767368;80;21589;-75
2022/03/15 07:07:26;;;;;;;20.57;16.93;;;;;;;9.27;43.96;103400.48;1782868;79;21034;-74
2022/03/15 07:09:54;;;;;;;21.05;17.52;;;;;;;9.32;43.80;103394.97;1752189;80;21545;-74
2022/03/15 07:12:24;;;;;;;20.88;17.05;;;;;;;9.34;43.84;103394.99;1749265;81;21018;-74
2022/03/15 07:14:51;;;;;;;20.72;16.52;;;;;;;9.32;43.79;103396.27;1770490;79;21132;-75
2022/03/15 07:17:19;;;;;;;21.65;17.25;;;;;;;9.29;43.72;103394.91;1768986;80;21021;-75
2022/03/15 07:19:46;;;;;;;21.07;16.57;;;;;;;9.25;43.78;103393.07;1767166;79;21074;-75
2022/03/15 07:22:13;;;;;;;21.23;17.65;;;;;;;9.24;43.91;103396.49;1778326;79;21011;-75
2022/03/15 07:24:40;;;;;;;21.42;16.40;;;;;;;9.20;43.95;103399.85;1784904;78;21012;-75
2022/03/15 07:27:07;;;;;;;24.20;17.92;;;;;;;9.11;44.01;103399.60;1782154;79;21074;-74
2022/03/15 07:29:34;;;;;;;22.95;16.57;;;;;;;9.01;44.28;103400.20;1769784;79;21549;-75
2022/03/15 07:32:01;;;;;;;21.73;17.40;;;;;;;8.87;44.67;103401.14;1768565;80;21027;-75
2022/03/15 07:34:28;;;;;;;19.30;16.35;;;;;;;8.75;44.86;103397.33;1763726;79;21092;-75
2022/03/15 07:36:55;;;;;;;18.90;15.98;;;;;;;8.66;45.05;103394.05;1773564;80;21512;-75
2022/03/15 07:39:22;;;;;;;20.15;16.57;;;;;;;8.61;44.92;103399.97;1766348;79;21036;-75
2022/03/15 07:41:48;;;;;;;24.82;16.67;;;;;;;8.49;44.49;103387.95;1778540;79;21066;-74
2022/03/15 07:44:15;;;;;;;20.60;16.75;;;;;;;8.33;44.87;103388.31;1763058;79;21073;-75
2022/03/15 07:46:48;;;;;;;19.12;16.40;;;;;;;8.22;45.04;103388.84;1774000;79;21058;-74
2022/03/15 07:49:11;;;;;;;20.25;15.50;;;;;;;8.18;45.42;103387.00;1769708;79;21030;-74
2022/03/15 07:51:38;;;;;;;19.55;15.38;;;;;;;8.19;45.32;103383.58;1766689;80;21025;-75
2022/03/15 07:54:05;;;;;;;19.95;15.72;;;;;;;8.12;45.05;103384.22;1766351;80;21060;-75
2022/03/15 07:56:32;;;;;;;18.80;14.73;;;;;;;8.11;44.87;103386.78;1731593;81;21871;-74
2022/03/15 07:58:58;;;;;;;18.67;15.85;;;;;;;8.02;44.81;103384.78;1789678;78;21027;-75
2022/03/15 08:01:25;;;;;;;18.42;15.10;;;;;;;7.91;45.23;103378.38;1778075;79;21030;-75
2022/03/15 08:03:53;;;;;;;19.70;15.40;;;;;;;7.86;45.28;103377.38;1748121;80;21018;-74
2022/03/15 08:06:21;;;;;;;18.90;14.50;;;;;;;7.81;45.44;103369.86;1776253;79;21002;-73
2022/03/15 08:08:48;;;;;;;21.40;15.18;;;;;;;7.75;45.61;103373.56;1768497;80;21607;-73
2022/03/15 08:11:15;;;;;;;18.32;15.53;;;;;;;7.70;45.70;103366.48;1784102;79;21034;-73
2022/03/15 08:13:42;;;;;;;18.00;14.55;;;;;;;7.66;45.93;103372.00;1792225;79;21005;-74
2022/03/15 08:16:09;;;;;;;19.77;15.38;;;;;;;7.69;45.91;103373.37;1776658;80;20950;-74
2022/03/15 08:18:37;;;;;;;21.87;15.53;;;;;;;7.70;45.80;103370.37;1772264;79;21055;-73
2022/03/15 08:21:04;;;;;;;19.15;15.98;;;;;;;7.69;45.80;103373.37;1772727;79;21069;-73
2022/03/15 08:23:32;;;;;;;18.45;15.25;;;;;;;7.66;46.06;103364.63;1775779;79;21014;-72
2022/03/15 08:25:58;;;;;;;19.00;14.18;;;;;;;7.64;46.28;103367.18;1766531;79;21017;-73
2022/03/15 08:28:25;;;;;;;19.27;14.83;;;;;;;7.67;46.24;103364.67;1720950;82;21029;-72
2022/03/15 08:30:54;;;;;;;18.65;13.93;;;;;;;7.67;46.04;103369.85;1787404;79;21022;-73
2022/03/15 08:33:21;;;;;;;17.50;13.70;;;;;;;7.63;46.39;103365.41;1725686;82;21109;-73
2022/03/15 08:35:47;;;;;;;19.27;14.00;;;;;;;7.68;46.45;103369.44;1750238;82;21086;-74
2022/03/15 08:38:14;;;;;;;17.25;14.60;;;;;;;7.70;46.25;103367.38;1734460;82;21053;-74
2022/03/15 08:40:40;;;;;;;17.90;13.68;;;;;;;7.74;46.00;103361.45;1736430;82;21028;-73
2022/03/15 08:43:09;;;;;;;19.07;14.38;;;;;;;7.78;45.84;103360.71;1733694;82;21034;-73
2022/03/15 08:45:36;;;;;;;20.77;14.65;;;;;;;7.78;46.08;103360.71;1732985;82;21597;-73
2022/03/15 08:48:03;;;;;;;23.67;14.13;;;;;;;7.81;45.97;103360.78;1712918;82;21072;-73
2022/03/15 08:50:30;;;;;;;20.85;15.90;;;;;;;7.79;46.09;103357.27;1721014;82;21066;-73
2022/03/15 08:52:57;;;;;;;16.52;13.70;;;;;;;7.80;46.20;103353.86;1730412;82;20974;-73
2022/03/15 08:55:26;;;;;;;19.55;14.98;;;;;;;7.82;46.20;103350.91;1725533;82;21045;-73
2022/03/15 08:57:53;;;;;;;17.17;13.62;;;;;;;7.85;46.34;103352.27;1730949;82;21037;-73
2022/03/15 09:00:19;;;;;;;20.60;14.90;;;;;;;7.89;46.48;103343.75;1711236;82;21033;-73
2022/03/15 09:02:46;;;;;;;20.50;14.40;;;;;;;7.95;46.61;103343.97;1725014;82;21009;-74
2022/03/15 09:05:16;;;;;;;19.87;15.30;;;;;;;8.00;46.53;103334.59;1731860;82;21006;-74
2022/03/15 09:07:42;;;;;;;19.30;14.38;;;;;;;8.05;46.34;103324.37;1740105;82;21070;-73
2022/03/15 09:10:09;;;;;;;16.25;12.55;;;;;;;8.14;46.37;103325.50;1747926;82;21577;-73
2022/03/15 09:12:37;;;;;;;15.08;12.82;;;;;;;8.20;45.78;103323.08;1720184;81;21072;-73
2022/03/15 09:15:05;;;;;;;15.25;12.28;;;;;;;8.23;45.71;103319.29;1719380;82;21057;-75
2022/03/15 09:17:31;;;;;;;16.70;12.98;;;;;;;8.31;45.75;103318.64;1733516;82;21018;-75
2022/03/15 09:19:58;;;;;;;14.70;12.45;;;;;;;8.39;45.35;103318.47;1734738;82;21081;-74
2022/03/15 09:22:24;;;;;;;17.15;12.30;;;;;;;8.43;45.32;103311.23;1712202;82;22289;-75
2022/03/15 09:24:51;;;;;;;14.80;12.28;;;;;;;8.48;45.32;103310.92;1727677;82;21073;-74
2022/03/15 09:27:18;;;;;;;15.08;11.70;;;;;;;8.50;44.81;103307.95;1734791;82;21050;-74
2022/03/15 09:29:45;;;;;;;14.23;11.78;;;;;;;8.52;44.30;103304.98;1748818;80;21058;-76
2022/03/15 09:32:12;;;;;;;14.95;12.55;;;;;;;8.53;44.29;103306.75;1760389;80;21011;-74
2022/03/15 09:34:39;;;;;;;13.85;11.63;;;;;;;8.53;44.88;103302.86;1712465;83;22606;-74
2022/03/15 09:37:07;;;;;;;11.57;9.68;;;;;;;8.53;44.43;103300.27;1779307;79;21035;-74
2022/03/15 09:39:34;;;;;;;11.28;10.08;;;;;;;8.52;42.52;103296.78;1776933;78;21008;-76
2022/03/15 09:42:09;;;;;;;13.80;11.10;;;;;;;8.55;42.74;103285.16;1792633;78;21054;-74
2022/03/15 09:44:39;;;;;;;13.18;10.58;;;;;;;8.59;42.86;103288.74;1783639;78;21054;-75
2022/03/15 09:47:07;;;;;;;14.13;10.80;;;;;;;8.63;42.76;103286.28;1784064;79;21035;-72
2022/03/15 09:49:35;;;;;;;12.95;11.25;;;;;;;8.64;42.89;103283.23;1786927;78;21470;-68
2022/03/15 09:52:07;;;;;;;13.00;11.15;;;;;;;8.64;43.56;103281.94;1792679;78;21004;-69
2022/03/15 09:54:34;;;;;;;17.82;12.70;;;;;;;8.66;43.97;103277.66;1779200;79;21056;-74
2022/03/15 09:57:05;;;;;;;12.45;10.82;;;;;;;8.69;43.86;103269.97;1765515;79;21037;-75
2022/03/15 09:59:32;;;;;;;14.23;11.43;;;;;;;8.74;43.67;103267.06;1756963;80;20979;-73
2022/03/15 10:02:00;;;;;;;14.65;11.25;;;;;;;8.80;42.95;103265.50;1747965;80;21109;-75
2022/03/15 10:04:27;;;;;;;13.05;10.82;;;;;;;8.84;43.42;103258.70;1695391;83;21039;-73
2022/03/15 10:06:55;;;;;;;13.88;10.50;;;;;;;8.90;43.21;103254.50;1701025;83;21101;-73
2022/03/15 10:09:21;;;;;;;13.05;10.82;;;;;;;8.99;42.95;103256.45;1692239;83;21089;-73
2022/03/15 10:11:50;;;;;;;13.80;11.05;;;;;;;9.05;42.92;103253.14;1695931;83;21076;-73
2022/03/15 10:14:19;;;;;;;12.70;9.83;;;;;;;9.12;42.00;103244.23;1661476;84;21151;-74
2022/03/15 10:16:49;;;;;;;11.60;9.55;;;;;;;9.15;42.18;103249.92;1719212;82;20975;-73
2022/03/15 10:19:17;;;;;;;14.60;10.50;;;;;;;9.18;42.35;103236.58;1715880;81;21105;-73
2022/03/15 10:21:52;;;;;;;14.80;12.25;;;;;;;9.23;41.83;103233.68;1724446;82;21018;-74
2022/03/15 10:24:28;;;;;;;12.20;10.90;;;;;;;9.27;41.80;103235.50;1712871;82;21097;-74
2022/03/15 10:26:57;;;;;;;12.05;10.32;;;;;;;9.29;42.54;103229.03;1688164;83;21120;-75
2022/03/15 10:29:26;;;;;;;10.72;9.40;;;;;;;9.34;41.73;103233.48;1662248;84;21062;-74
2022/03/15 10:31:53;;;;;;;13.08;10.05;;;;;;;9.42;41.68;103234.53;1657499;84;21518;-74
2022/03/15 10:34:22;;;;;;;12.63;10.25;;;;;;;9.48;41.33;103226.86;1692766;83;21034;-73
2022/03/15 10:36:56;;;;;;;12.85;10.38;;;;;;;9.55;41.13;103228.77;1693155;84;21043;-73
2022/03/15 10:39:24;;;;;;;12.47;10.23;;;;;;;9.63;41.12;103229.80;1691089;83;21037;-73
2022/03/15 10:42:05;;;;;;;12.78;10.50;;;;;;;9.70;40.48;103231.70;1652611;84;21129;-75
2022/03/15 10:44:38;;;;;;;13.93;11.68;;;;;;;9.81;41.45;103234.08;1695109;82;21108;-76
2022/03/15 10:47:14;;;;;;;11.80;10.50;;;;;;;9.96;41.85;103235.23;1680134;83;21510;-72
2022/03/15 10:49:56;;;;;;;15.30;10.90;;;;;;;10.10;42.33;103235.11;1674741;84;21610;-73
2022/03/15 10:52:40;;;;;;;12.95;10.48;;;;;;;10.23;42.75;103235.81;1672331;84;21118;-73
2022/03/15 10:55:28;;;;;;;14.73;11.80;;;;;;;10.33;42.66;103239.92;1607005;87;21105;-75
2022/03/15 10:57:58;;;;;;;15.45;11.35;;;;;;;10.41;42.61;103233.55;1590021;88;21102;-73
2022/03/15 11:00:31;;;;;;;17.80;11.75;;;;;;;10.50;42.39;103227.22;1620072;86;21031;-74
2022/03/15 11:02:58;;;;;;;12.88;10.88;;;;;;;10.54;42.62;103216.89;1619760;88;21611;-75
2022/03/15 11:05:33;;;;;;;13.20;11.10;;;;;;;10.64;44.07;103213.59;1617942;86;21098;-74
2022/03/15 11:08:14;;;;;;;14.03;10.93;;;;;;;10.70;44.84;103214.52;1619474;87;21085;-73
2022/03/15 11:10:49;;;;;;;11.63;10.35;;;;;;;10.74;44.74;103204.64;1603677;87;21110;-71
2022/03/15 11:13:17;;;;;;;15.28;10.72;;;;;;;10.79;44.10;103202.55;1618704;87;21550;-72
2022/03/15 11:15:53;;;;;;;12.63;10.03;;;;;;;10.82;43.20;103192.17;1612595;87;21090;-73
2022/03/15 11:18:21;;;;;;;12.55;9.50;;;;;;;10.87;42.76;103193.13;1609630;87;21013;-73
2022/03/15 11:20:51;;;;;;;11.70;9.63;;;;;;;10.91;43.38;103192.33;1617093;87;21047;-73